sensor_id;sensor_type;location;lat;lon;timestamp;P1;durP1;ratioP1;P2;durP2;ratioP2
77978;SDS011;67169;50.268;8.694;2023-09-12T00:03:37;3.55;;;1.63;;
77978;SDS011;67169;50.268;8.694;2023-09-12T00:06:03;3.10;;;1.90;;
77978;SDS011;67169;50.268;8.694;2023-09-12T00:08:30;1.80;;;1.30;;
77978;SDS011;67169;50.268;8.694;2023-09-12T00:11:00;3.15;;;1.75;;
77978;SDS011;67169;50.268;8.694;2023-09-12T00:13:28;3.30;;;2.08;;
77978;SDS011;67169;50.268;8.694;2023-09-12T00:15:55;5.03;;;1.70;;
77978;SDS011;67169;50.268;8.694;2023-09-12T00:18:22;5.10;;;2.08;;
77978;SDS011;67169;50.268;8.694;2023-09-12T00:20:50;2.88;;;1.60;;
77978;SDS011;67169;50.268;8.694;2023-09-12T00:23:16;2.70;;;2.10;;
77978;SDS011;67169;50.268;8.694;2023-09-12T00:25:42;2.80;;;1.63;;
77978;SDS011;67169;50.268;8.694;2023-09-12T00:28:09;2.92;;;2.42;;
77978;SDS011;67169;50.268;8.694;2023-09-12T00:30:36;4.22;;;1.90;;
77978;SDS011;67169;50.268;8.694;2023-09-12T00:33:02;3.75;;;1.80;;
77978;SDS011;67169;50.268;8.694;2023-09-12T00:35:29;4.60;;;2.08;;
77978;SDS011;67169;50.268;8.694;2023-09-12T00:37:57;3.28;;;2.13;;
77978;SDS011;67169;50.268;8.694;2023-09-12T00:40:24;8.75;;;2.25;;
77978;SDS011;67169;50.268;8.694;2023-09-12T00:42:50;3.13;;;2.03;;
77978;SDS011;67169;50.268;8.694;2023-09-12T00:45:17;4.70;;;2.10;;
77978;SDS011;67169;50.268;8.694;2023-09-12T00:47:44;3.38;;;1.92;;
77978;SDS011;67169;50.268;8.694;2023-09-12T00:50:11;2.22;;;1.70;;
77978;SDS011;67169;50.268;8.694;2023-09-12T00:52:38;2.45;;;1.63;;
77978;SDS011;67169;50.268;8.694;2023-09-12T00:55:07;4.43;;;2.10;;
77978;SDS011;67169;50.268;8.694;2023-09-12T00:57:34;5.20;;;2.08;;
77978;SDS011;67169;50.268;8.694;2023-09-12T01:00:02;5.88;;;2.47;;
77978;SDS011;67169;50.268;8.694;2023-09-12T01:02:35;4.22;;;3.13;;
77978;SDS011;67169;50.268;8.694;2023-09-12T01:05:03;2.05;;;1.80;;
77978;SDS011;67169;50.268;8.694;2023-09-12T01:07:31;4.00;;;2.50;;
77978;SDS011;67169;50.268;8.694;2023-09-12T01:09:58;5.55;;;2.33;;
77978;SDS011;67169;50.268;8.694;2023-09-12T01:12:26;2.85;;;2.33;;
77978;SDS011;67169;50.268;8.694;2023-09-12T01:14:53;2.65;;;2.35;;
77978;SDS011;67169;50.268;8.694;2023-09-12T01:17:20;3.92;;;2.45;;
77978;SDS011;67169;50.268;8.694;2023-09-12T01:19:46;3.75;;;2.35;;
77978;SDS011;67169;50.268;8.694;2023-09-12T01:22:21;5.40;;;2.33;;
77978;SDS011;67169;50.268;8.694;2023-09-12T01:25:17;3.72;;;2.33;;
77978;SDS011;67169;50.268;8.694;2023-09-12T01:28:09;4.43;;;2.08;;
77978;SDS011;67169;50.268;8.694;2023-09-12T01:30:36;3.42;;;2.25;;
77978;SDS011;67169;50.268;8.694;2023-09-12T01:33:05;4.03;;;2.00;;
77978;SDS011;67169;50.268;8.694;2023-09-12T01:35:32;2.22;;;2.03;;
77978;SDS011;67169;50.268;8.694;2023-09-12T01:37:58;3.05;;;1.92;;
77978;SDS011;67169;50.268;8.694;2023-09-12T01:40:27;6.15;;;2.50;;
77978;SDS011;67169;50.268;8.694;2023-09-12T01:43:00;5.78;;;2.30;;
77978;SDS011;67169;50.268;8.694;2023-09-12T01:45:31;2.55;;;1.88;;
77978;SDS011;67169;50.268;8.694;2023-09-12T01:47:59;5.10;;;2.70;;
77978;SDS011;67169;50.268;8.694;2023-09-12T01:50:27;4.75;;;2.42;;
77978;SDS011;67169;50.268;8.694;2023-09-12T01:52:55;3.90;;;2.17;;
77978;SDS011;67169;50.268;8.694;2023-09-12T01:55:22;3.00;;;2.22;;
77978;SDS011;67169;50.268;8.694;2023-09-12T01:57:48;5.35;;;2.42;;
77978;SDS011;67169;50.268;8.694;2023-09-12T02:00:17;3.95;;;2.00;;
77978;SDS011;67169;50.268;8.694;2023-09-12T02:02:47;2.42;;;1.90;;
77978;SDS011;67169;50.268;8.694;2023-09-12T02:05:14;4.28;;;2.15;;
77978;SDS011;67169;50.268;8.694;2023-09-12T02:07:43;4.88;;;2.55;;
77978;SDS011;67169;50.268;8.694;2023-09-12T02:10:11;2.60;;;2.28;;
77978;SDS011;67169;50.268;8.694;2023-09-12T02:12:37;3.80;;;2.72;;
77978;SDS011;67169;50.268;8.694;2023-09-12T02:15:05;4.00;;;2.03;;
77978;SDS011;67169;50.268;8.694;2023-09-12T02:17:32;2.83;;;2.10;;
77978;SDS011;67169;50.268;8.694;2023-09-12T02:20:00;2.92;;;2.05;;
77978;SDS011;67169;50.268;8.694;2023-09-12T02:22:27;3.17;;;2.75;;
77978;SDS011;67169;50.268;8.694;2023-09-12T02:24:53;4.82;;;2.97;;
77978;SDS011;67169;50.268;8.694;2023-09-12T02:27:20;3.17;;;2.30;;
77978;SDS011;67169;50.268;8.694;2023-09-12T02:29:47;2.28;;;1.92;;
77978;SDS011;67169;50.268;8.694;2023-09-12T02:32:14;5.47;;;2.53;;
77978;SDS011;67169;50.268;8.694;2023-09-12T02:34:40;2.85;;;2.15;;
77978;SDS011;67169;50.268;8.694;2023-09-12T02:37:08;4.15;;;2.42;;
77978;SDS011;67169;50.268;8.694;2023-09-12T02:39:35;5.43;;;2.53;;
77978;SDS011;67169;50.268;8.694;2023-09-12T02:42:01;4.38;;;2.47;;
77978;SDS011;67169;50.268;8.694;2023-09-12T02:44:28;4.22;;;2.05;;
77978;SDS011;67169;50.268;8.694;2023-09-12T02:46:55;4.30;;;2.90;;
77978;SDS011;67169;50.268;8.694;2023-09-12T02:49:21;4.07;;;2.92;;
77978;SDS011;67169;50.268;8.694;2023-09-12T02:51:48;4.25;;;2.40;;
77978;SDS011;67169;50.268;8.694;2023-09-12T02:54:16;3.42;;;2.33;;
77978;SDS011;67169;50.268;8.694;2023-09-12T02:56:42;4.97;;;2.58;;
77978;SDS011;67169;50.268;8.694;2023-09-12T02:59:09;3.70;;;1.75;;
77978;SDS011;67169;50.268;8.694;2023-09-12T03:01:35;4.25;;;2.33;;
77978;SDS011;67169;50.268;8.694;2023-09-12T03:04:02;5.15;;;2.58;;
77978;SDS011;67169;50.268;8.694;2023-09-12T03:06:29;4.05;;;2.75;;
77978;SDS011;67169;50.268;8.694;2023-09-12T03:08:56;5.10;;;2.22;;
77978;SDS011;67169;50.268;8.694;2023-09-12T03:11:25;3.78;;;2.30;;
77978;SDS011;67169;50.268;8.694;2023-09-12T03:13:52;6.32;;;2.83;;
77978;SDS011;67169;50.268;8.694;2023-09-12T03:16:18;4.68;;;2.10;;
77978;SDS011;67169;50.268;8.694;2023-09-12T03:18:45;2.42;;;1.90;;
77978;SDS011;67169;50.268;8.694;2023-09-12T03:21:12;4.90;;;2.80;;
77978;SDS011;67169;50.268;8.694;2023-09-12T03:23:38;3.50;;;2.20;;
77978;SDS011;67169;50.268;8.694;2023-09-12T03:26:06;4.20;;;2.15;;
77978;SDS011;67169;50.268;8.694;2023-09-12T03:28:34;4.57;;;2.15;;
77978;SDS011;67169;50.268;8.694;2023-09-12T03:31:05;4.40;;;1.55;;
77978;SDS011;67169;50.268;8.694;2023-09-12T03:33:33;2.28;;;1.80;;
77978;SDS011;67169;50.268;8.694;2023-09-12T03:35:59;3.88;;;2.63;;
77978;SDS011;67169;50.268;8.694;2023-09-12T03:38:26;7.72;;;2.42;;
77978;SDS011;67169;50.268;8.694;2023-09-12T03:40:53;2.92;;;1.95;;
77978;SDS011;67169;50.268;8.694;2023-09-12T03:43:19;4.80;;;2.20;;
77978;SDS011;67169;50.268;8.694;2023-09-12T03:45:47;2.35;;;2.05;;
77978;SDS011;67169;50.268;8.694;2023-09-12T03:48:14;3.65;;;2.15;;
77978;SDS011;67169;50.268;8.694;2023-09-12T03:50:40;4.93;;;2.10;;
77978;SDS011;67169;50.268;8.694;2023-09-12T03:53:07;3.50;;;2.13;;
77978;SDS011;67169;50.268;8.694;2023-09-12T03:55:33;3.95;;;2.35;;
77978;SDS011;67169;50.268;8.694;2023-09-12T03:58:00;3.33;;;2.28;;
77978;SDS011;67169;50.268;8.694;2023-09-12T04:00:27;3.53;;;2.17;;
77978;SDS011;67169;50.268;8.694;2023-09-12T04:02:55;2.50;;;2.25;;
77978;SDS011;67169;50.268;8.694;2023-09-12T04:05:21;2.72;;;1.92;;
77978;SDS011;67169;50.268;8.694;2023-09-12T04:07:48;4.18;;;2.33;;
77978;SDS011;67169;50.268;8.694;2023-09-12T04:10:15;4.97;;;1.73;;
77978;SDS011;67169;50.268;8.694;2023-09-12T04:12:43;3.40;;;2.10;;
77978;SDS011;67169;50.268;8.694;2023-09-12T04:15:10;5.88;;;2.17;;
77978;SDS011;67169;50.268;8.694;2023-09-12T04:17:36;3.35;;;2.03;;
77978;SDS011;67169;50.268;8.694;2023-09-12T04:20:05;4.70;;;2.50;;
77978;SDS011;67169;50.268;8.694;2023-09-12T04:22:32;3.25;;;1.92;;
77978;SDS011;67169;50.268;8.694;2023-09-12T04:24:59;2.90;;;2.13;;
77978;SDS011;67169;50.268;8.694;2023-09-12T04:27:25;6.72;;;2.08;;
77978;SDS011;67169;50.268;8.694;2023-09-12T04:29:52;3.88;;;2.38;;
77978;SDS011;67169;50.268;8.694;2023-09-12T04:32:18;3.60;;;2.45;;
77978;SDS011;67169;50.268;8.694;2023-09-12T04:34:48;3.35;;;1.88;;
77978;SDS011;67169;50.268;8.694;2023-09-12T04:37:16;2.78;;;2.03;;
77978;SDS011;67169;50.268;8.694;2023-09-12T04:39:43;3.17;;;2.58;;
77978;SDS011;67169;50.268;8.694;2023-09-12T04:42:10;3.00;;;1.90;;
77978;SDS011;67169;50.268;8.694;2023-09-12T04:44:38;3.75;;;2.33;;
77978;SDS011;67169;50.268;8.694;2023-09-12T04:47:06;3.60;;;2.38;;
77978;SDS011;67169;50.268;8.694;2023-09-12T04:49:33;2.95;;;2.35;;
77978;SDS011;67169;50.268;8.694;2023-09-12T04:51:59;3.05;;;1.95;;
77978;SDS011;67169;50.268;8.694;2023-09-12T04:54:28;2.45;;;2.20;;
77978;SDS011;67169;50.268;8.694;2023-09-12T04:56:54;2.45;;;1.80;;
77978;SDS011;67169;50.268;8.694;2023-09-12T04:59:21;3.00;;;2.40;;
77978;SDS011;67169;50.268;8.694;2023-09-12T05:01:47;2.53;;;1.90;;
77978;SDS011;67169;50.268;8.694;2023-09-12T05:04:14;4.40;;;2.28;;
77978;SDS011;67169;50.268;8.694;2023-09-12T05:06:40;7.28;;;2.38;;
77978;SDS011;67169;50.268;8.694;2023-09-12T05:09:07;4.63;;;1.73;;
77978;SDS011;67169;50.268;8.694;2023-09-12T05:11:37;5.22;;;2.17;;
77978;SDS011;67169;50.268;8.694;2023-09-12T05:14:04;2.42;;;1.67;;
77978;SDS011;67169;50.268;8.694;2023-09-12T05:16:30;5.50;;;2.55;;
77978;SDS011;67169;50.268;8.694;2023-09-12T05:18:57;5.63;;;2.55;;
77978;SDS011;67169;50.268;8.694;2023-09-12T05:21:23;4.13;;;2.45;;
77978;SDS011;67169;50.268;8.694;2023-09-12T05:23:50;3.25;;;2.67;;
77978;SDS011;67169;50.268;8.694;2023-09-12T05:26:17;5.85;;;1.88;;
77978;SDS011;67169;50.268;8.694;2023-09-12T05:28:45;5.95;;;2.60;;
77978;SDS011;67169;50.268;8.694;2023-09-12T05:31:11;2.70;;;1.83;;
77978;SDS011;67169;50.268;8.694;2023-09-12T05:33:38;9.02;;;2.67;;
77978;SDS011;67169;50.268;8.694;2023-09-12T05:36:04;4.13;;;2.55;;
77978;SDS011;67169;50.268;8.694;2023-09-12T05:38:31;5.10;;;2.60;;
77978;SDS011;67169;50.268;8.694;2023-09-12T05:40:57;2.75;;;2.03;;
77978;SDS011;67169;50.268;8.694;2023-09-12T05:43:24;3.17;;;2.88;;
77978;SDS011;67169;50.268;8.694;2023-09-12T05:45:53;2.60;;;2.00;;
77978;SDS011;67169;50.268;8.694;2023-09-12T05:48:21;3.35;;;2.03;;
77978;SDS011;67169;50.268;8.694;2023-09-12T05:50:47;3.83;;;2.72;;
77978;SDS011;67169;50.268;8.694;2023-09-12T05:53:14;3.88;;;2.72;;
77978;SDS011;67169;50.268;8.694;2023-09-12T05:55:40;3.03;;;2.42;;
77978;SDS011;67169;50.268;8.694;2023-09-12T05:58:07;4.90;;;2.33;;
77978;SDS011;67169;50.268;8.694;2023-09-12T06:00:33;4.32;;;2.58;;
77978;SDS011;67169;50.268;8.694;2023-09-12T06:03:02;3.85;;;2.72;;
77978;SDS011;67169;50.268;8.694;2023-09-12T06:05:29;4.72;;;2.72;;
77978;SDS011;67169;50.268;8.694;2023-09-12T06:07:55;5.45;;;2.45;;
77978;SDS011;67169;50.268;8.694;2023-09-12T06:10:22;3.72;;;2.47;;
77978;SDS011;67169;50.268;8.694;2023-09-12T06:12:49;4.88;;;2.67;;
77978;SDS011;67169;50.268;8.694;2023-09-12T06:15:15;5.13;;;3.38;;
77978;SDS011;67169;50.268;8.694;2023-09-12T06:17:42;4.80;;;3.42;;
77978;SDS011;67169;50.268;8.694;2023-09-12T06:20:10;4.63;;;3.38;;
77978;SDS011;67169;50.268;8.694;2023-09-12T06:22:37;8.52;;;2.78;;
77978;SDS011;67169;50.268;8.694;2023-09-12T06:25:04;5.53;;;3.20;;
77978;SDS011;67169;50.268;8.694;2023-09-12T06:29:57;4.22;;;3.17;;
77978;SDS011;67169;50.268;8.694;2023-09-12T06:32:24;8.43;;;2.90;;
77978;SDS011;67169;50.268;8.694;2023-09-12T06:34:50;4.38;;;2.97;;
77978;SDS011;67169;50.268;8.694;2023-09-12T06:37:18;4.22;;;3.05;;
77978;SDS011;67169;50.268;8.694;2023-09-12T06:39:48;6.40;;;3.13;;
77978;SDS011;67169;50.268;8.694;2023-09-12T06:42:15;5.47;;;3.00;;
77978;SDS011;67169;50.268;8.694;2023-09-12T06:44:42;3.95;;;3.08;;
77978;SDS011;67169;50.268;8.694;2023-09-12T06:47:08;7.28;;;3.28;;
77978;SDS011;67169;50.268;8.694;2023-09-12T06:49:35;6.93;;;3.50;;
77978;SDS011;67169;50.268;8.694;2023-09-12T06:52:03;8.77;;;3.15;;
77978;SDS011;67169;50.268;8.694;2023-09-12T06:54:32;4.22;;;2.92;;
77978;SDS011;67169;50.268;8.694;2023-09-12T06:56:58;3.45;;;3.00;;
77978;SDS011;67169;50.268;8.694;2023-09-12T06:59:25;7.78;;;3.60;;
77978;SDS011;67169;50.268;8.694;2023-09-12T07:01:52;6.25;;;3.28;;
77978;SDS011;67169;50.268;8.694;2023-09-12T07:04:18;6.50;;;3.50;;
77978;SDS011;67169;50.268;8.694;2023-09-12T07:06:45;4.80;;;3.08;;
77978;SDS011;67169;50.268;8.694;2023-09-12T07:09:11;5.28;;;2.92;;
77978;SDS011;67169;50.268;8.694;2023-09-12T07:11:40;5.10;;;3.47;;
77978;SDS011;67169;50.268;8.694;2023-09-12T07:14:07;8.27;;;3.45;;
77978;SDS011;67169;50.268;8.694;2023-09-12T07:16:34;5.80;;;2.75;;
77978;SDS011;67169;50.268;8.694;2023-09-12T07:19:01;5.35;;;3.55;;
77978;SDS011;67169;50.268;8.694;2023-09-12T07:21:28;4.30;;;2.83;;
77978;SDS011;67169;50.268;8.694;2023-09-12T07:23:55;6.70;;;3.42;;
77978;SDS011;67169;50.268;8.694;2023-09-12T07:26:21;4.30;;;3.28;;
77978;SDS011;67169;50.268;8.694;2023-09-12T07:28:49;3.50;;;2.75;;
77978;SDS011;67169;50.268;8.694;2023-09-12T07:31:16;3.30;;;2.95;;
77978;SDS011;67169;50.268;8.694;2023-09-12T07:33:43;7.07;;;3.22;;
77978;SDS011;67169;50.268;8.694;2023-09-12T07:36:09;4.05;;;2.35;;
77978;SDS011;67169;50.268;8.694;2023-09-12T07:38:36;5.75;;;2.85;;
77978;SDS011;67169;50.268;8.694;2023-09-12T07:41:03;4.25;;;2.90;;
77978;SDS011;67169;50.268;8.694;2023-09-12T07:43:29;4.53;;;2.88;;
77978;SDS011;67169;50.268;8.694;2023-09-12T07:45:58;3.63;;;2.78;;
77978;SDS011;67169;50.268;8.694;2023-09-12T07:48:25;6.38;;;2.08;;
77978;SDS011;67169;50.268;8.694;2023-09-12T07:50:52;4.65;;;2.22;;
77978;SDS011;67169;50.268;8.694;2023-09-12T07:55:47;3.22;;;2.20;;
77978;SDS011;67169;50.268;8.694;2023-09-12T07:58:14;1.77;;;1.60;;
77978;SDS011;67169;50.268;8.694;2023-09-12T08:00:43;5.07;;;2.30;;
77978;SDS011;67169;50.268;8.694;2023-09-12T08:03:11;4.25;;;2.50;;
77978;SDS011;67169;50.268;8.694;2023-09-12T08:05:38;1.85;;;1.73;;
77978;SDS011;67169;50.268;8.694;2023-09-12T08:08:05;2.65;;;2.08;;
77978;SDS011;67169;50.268;8.694;2023-09-12T08:10:31;4.55;;;1.85;;
77978;SDS011;67169;50.268;8.694;2023-09-12T08:12:58;3.03;;;1.98;;
77978;SDS011;67169;50.268;8.694;2023-09-12T08:15:24;2.50;;;2.10;;
77978;SDS011;67169;50.268;8.694;2023-09-12T08:17:51;6.22;;;2.38;;
77978;SDS011;67169;50.268;8.694;2023-09-12T08:20:19;3.65;;;2.13;;
77978;SDS011;67169;50.268;8.694;2023-09-12T08:22:46;2.28;;;2.03;;
77978;SDS011;67169;50.268;8.694;2023-09-12T08:27:40;2.38;;;1.80;;
77978;SDS011;67169;50.268;8.694;2023-09-12T08:30:09;4.10;;;2.53;;
77978;SDS011;67169;50.268;8.694;2023-09-12T08:32:37;3.55;;;2.20;;
77978;SDS011;67169;50.268;8.694;2023-09-12T08:35:05;3.75;;;2.65;;
77978;SDS011;67169;50.268;8.694;2023-09-12T08:37:34;5.15;;;2.63;;
77978;SDS011;67169;50.268;8.694;2023-09-12T08:40:00;4.47;;;2.00;;
77978;SDS011;67169;50.268;8.694;2023-09-12T08:42:32;2.88;;;2.40;;
77978;SDS011;67169;50.268;8.694;2023-09-12T08:45:05;2.47;;;2.08;;
77978;SDS011;67169;50.268;8.694;2023-09-12T08:47:35;2.80;;;2.10;;
77978;SDS011;67169;50.268;8.694;2023-09-12T08:50:04;3.97;;;2.30;;
77978;SDS011;67169;50.268;8.694;2023-09-12T08:52:31;4.60;;;2.15;;
77978;SDS011;67169;50.268;8.694;2023-09-12T08:54:59;4.38;;;2.30;;
77978;SDS011;67169;50.268;8.694;2023-09-12T08:57:26;3.83;;;2.25;;
77978;SDS011;67169;50.268;8.694;2023-09-12T08:59:54;2.10;;;1.90;;
77978;SDS011;67169;50.268;8.694;2023-09-12T09:02:20;2.85;;;2.10;;
77978;SDS011;67169;50.268;8.694;2023-09-12T09:04:47;3.03;;;1.95;;
77978;SDS011;67169;50.268;8.694;2023-09-12T09:07:16;3.70;;;2.42;;
77978;SDS011;67169;50.268;8.694;2023-09-12T09:09:45;2.47;;;2.10;;
77978;SDS011;67169;50.268;8.694;2023-09-12T09:12:14;3.00;;;2.10;;
77978;SDS011;67169;50.268;8.694;2023-09-12T09:14:40;3.42;;;2.33;;
77978;SDS011;67169;50.268;8.694;2023-09-12T09:17:07;2.80;;;2.13;;
77978;SDS011;67169;50.268;8.694;2023-09-12T09:19:42;2.70;;;2.13;;
77978;SDS011;67169;50.268;8.694;2023-09-12T09:22:11;1.90;;;1.67;;
77978;SDS011;67169;50.268;8.694;2023-09-12T09:24:38;3.03;;;2.35;;
77978;SDS011;67169;50.268;8.694;2023-09-12T09:27:04;3.42;;;2.17;;
77978;SDS011;67169;50.268;8.694;2023-09-12T09:29:32;3.22;;;2.30;;
77978;SDS011;67169;50.268;8.694;2023-09-12T09:32:16;2.20;;;1.73;;
77978;SDS011;67169;50.268;8.694;2023-09-12T09:34:44;4.65;;;2.03;;
77978;SDS011;67169;50.268;8.694;2023-09-12T09:37:10;2.78;;;1.83;;
77978;SDS011;67169;50.268;8.694;2023-09-12T09:39:37;2.55;;;1.88;;
77978;SDS011;67169;50.268;8.694;2023-09-12T09:42:04;2.95;;;2.15;;
77978;SDS011;67169;50.268;8.694;2023-09-12T09:44:38;4.07;;;1.77;;
77978;SDS011;67169;50.268;8.694;2023-09-12T09:47:05;3.92;;;2.38;;
77978;SDS011;67169;50.268;8.694;2023-09-12T09:49:31;2.10;;;1.90;;
77978;SDS011;67169;50.268;8.694;2023-09-12T09:51:59;2.28;;;1.80;;
77978;SDS011;67169;50.268;8.694;2023-09-12T09:54:29;2.97;;;2.22;;
77978;SDS011;67169;50.268;8.694;2023-09-12T09:56:56;1.88;;;1.70;;
77978;SDS011;67169;50.268;8.694;2023-09-12T09:59:24;4.13;;;2.20;;
77978;SDS011;67169;50.268;8.694;2023-09-12T10:01:55;5.03;;;2.15;;
77978;SDS011;67169;50.268;8.694;2023-09-12T10:04:23;2.60;;;1.95;;
77978;SDS011;67169;50.268;8.694;2023-09-12T10:06:52;5.78;;;1.92;;
77978;SDS011;67169;50.268;8.694;2023-09-12T10:09:25;2.80;;;1.80;;
77978;SDS011;67169;50.268;8.694;2023-09-12T10:11:52;2.88;;;1.70;;
77978;SDS011;67169;50.268;8.694;2023-09-12T10:14:22;2.15;;;1.95;;
77978;SDS011;67169;50.268;8.694;2023-09-12T10:16:50;2.22;;;1.90;;
77978;SDS011;67169;50.268;8.694;2023-09-12T10:19:19;4.32;;;1.80;;
77978;SDS011;67169;50.268;8.694;2023-09-12T10:21:49;2.95;;;1.92;;
77978;SDS011;67169;50.268;8.694;2023-09-12T10:24:20;2.90;;;1.88;;
77978;SDS011;67169;50.268;8.694;2023-09-12T10:26:49;2.42;;;1.65;;
77978;SDS011;67169;50.268;8.694;2023-09-12T10:29:16;2.90;;;1.67;;
77978;SDS011;67169;50.268;8.694;2023-09-12T10:31:43;1.77;;;1.67;;
77978;SDS011;67169;50.268;8.694;2023-09-12T10:34:10;1.88;;;1.65;;
77978;SDS011;67169;50.268;8.694;2023-09-12T10:36:41;2.80;;;2.25;;
77978;SDS011;67169;50.268;8.694;2023-09-12T10:39:09;3.70;;;1.77;;
77978;SDS011;67169;50.268;8.694;2023-09-12T10:41:39;3.35;;;1.77;;
77978;SDS011;67169;50.268;8.694;2023-09-12T10:44:07;1.63;;;1.38;;
77978;SDS011;67169;50.268;8.694;2023-09-12T10:46:36;3.20;;;1.95;;
77978;SDS011;67169;50.268;8.694;2023-09-12T10:49:06;3.28;;;1.65;;
77978;SDS011;67169;50.268;8.694;2023-09-12T10:51:33;3.17;;;1.80;;
77978;SDS011;67169;50.268;8.694;2023-09-12T10:54:05;2.72;;;1.83;;
77978;SDS011;67169;50.268;8.694;2023-09-12T10:56:32;2.33;;;1.73;;
77978;SDS011;67169;50.268;8.694;2023-09-12T10:59:08;2.30;;;2.00;;
77978;SDS011;67169;50.268;8.694;2023-09-12T11:01:37;2.03;;;1.60;;
77978;SDS011;67169;50.268;8.694;2023-09-12T11:06:59;2.13;;;1.80;;
77978;SDS011;67169;50.268;8.694;2023-09-12T11:09:28;3.67;;;1.50;;
77978;SDS011;67169;50.268;8.694;2023-09-12T11:11:55;1.75;;;1.65;;
77978;SDS011;67169;50.268;8.694;2023-09-12T11:14:23;2.90;;;2.22;;
77978;SDS011;67169;50.268;8.694;2023-09-12T11:17:19;2.97;;;1.85;;
77978;SDS011;67169;50.268;8.694;2023-09-12T11:19:47;2.05;;;1.67;;
77978;SDS011;67169;50.268;8.694;2023-09-12T11:22:20;2.20;;;2.00;;
77978;SDS011;67169;50.268;8.694;2023-09-12T11:24:49;2.30;;;1.83;;
77978;SDS011;67169;50.268;8.694;2023-09-12T11:27:16;3.63;;;2.08;;
77978;SDS011;67169;50.268;8.694;2023-09-12T11:32:09;2.80;;;1.35;;
77978;SDS011;67169;50.268;8.694;2023-09-12T11:37:03;1.92;;;1.70;;
77978;SDS011;67169;50.268;8.694;2023-09-12T11:39:30;3.95;;;2.00;;
77978;SDS011;67169;50.268;8.694;2023-09-12T11:42:00;3.33;;;1.90;;
77978;SDS011;67169;50.268;8.694;2023-09-12T11:44:27;5.65;;;2.25;;
77978;SDS011;67169;50.268;8.694;2023-09-12T11:46:56;2.28;;;1.80;;
77978;SDS011;67169;50.268;8.694;2023-09-12T11:49:28;1.98;;;1.83;;
77978;SDS011;67169;50.268;8.694;2023-09-12T11:52:02;4.80;;;2.00;;
77978;SDS011;67169;50.268;8.694;2023-09-12T11:54:29;4.03;;;2.08;;
77978;SDS011;67169;50.268;8.694;2023-09-12T11:56:57;3.58;;;2.00;;
77978;SDS011;67169;50.268;8.694;2023-09-12T11:59:26;2.00;;;1.88;;
77978;SDS011;67169;50.268;8.694;2023-09-12T12:02:05;2.42;;;1.85;;
77978;SDS011;67169;50.268;8.694;2023-09-12T12:04:32;3.00;;;2.15;;
77978;SDS011;67169;50.268;8.694;2023-09-12T12:06:59;4.03;;;1.67;;
77978;SDS011;67169;50.268;8.694;2023-09-12T12:09:26;3.15;;;1.95;;
77978;SDS011;67169;50.268;8.694;2023-09-12T12:11:53;2.72;;;2.10;;
77978;SDS011;67169;50.268;8.694;2023-09-12T12:14:20;3.58;;;1.80;;
77978;SDS011;67169;50.268;8.694;2023-09-12T12:16:47;2.67;;;2.00;;
77978;SDS011;67169;50.268;8.694;2023-09-12T12:19:15;2.63;;;1.73;;
77978;SDS011;67169;50.268;8.694;2023-09-12T12:21:42;2.90;;;2.00;;
77978;SDS011;67169;50.268;8.694;2023-09-12T12:24:10;2.38;;;1.98;;
77978;SDS011;67169;50.268;8.694;2023-09-12T12:26:40;3.15;;;1.95;;
77978;SDS011;67169;50.268;8.694;2023-09-12T12:29:08;3.08;;;1.95;;
77978;SDS011;67169;50.268;8.694;2023-09-12T12:31:35;2.47;;;1.90;;
77978;SDS011;67169;50.268;8.694;2023-09-12T12:34:02;2.15;;;1.85;;
77978;SDS011;67169;50.268;8.694;2023-09-12T12:36:30;3.55;;;1.98;;
77978;SDS011;67169;50.268;8.694;2023-09-12T12:38:57;3.08;;;2.03;;
77978;SDS011;67169;50.268;8.694;2023-09-12T12:41:25;2.97;;;2.40;;
77978;SDS011;67169;50.268;8.694;2023-09-12T12:43:53;2.80;;;2.10;;
77978;SDS011;67169;50.268;8.694;2023-09-12T12:46:24;2.72;;;2.35;;
77978;SDS011;67169;50.268;8.694;2023-09-12T12:48:51;3.08;;;2.42;;
77978;SDS011;67169;50.268;8.694;2023-09-12T12:51:18;4.57;;;2.00;;
77978;SDS011;67169;50.268;8.694;2023-09-12T12:53:49;2.50;;;2.30;;
77978;SDS011;67169;50.268;8.694;2023-09-12T12:56:17;3.25;;;2.17;;
77978;SDS011;67169;50.268;8.694;2023-09-12T12:58:46;3.28;;;2.08;;
77978;SDS011;67169;50.268;8.694;2023-09-12T13:01:14;3.58;;;2.08;;
77978;SDS011;67169;50.268;8.694;2023-09-12T13:03:40;3.42;;;2.30;;
77978;SDS011;67169;50.268;8.694;2023-09-12T13:06:07;4.70;;;2.15;;
77978;SDS011;67169;50.268;8.694;2023-09-12T13:08:38;3.92;;;2.22;;
77978;SDS011;67169;50.268;8.694;2023-09-12T13:11:06;3.42;;;2.33;;
77978;SDS011;67169;50.268;8.694;2023-09-12T13:13:33;3.22;;;2.28;;
77978;SDS011;67169;50.268;8.694;2023-09-12T13:18:26;3.28;;;2.00;;
77978;SDS011;67169;50.268;8.694;2023-09-12T13:20:53;2.80;;;2.25;;
77978;SDS011;67169;50.268;8.694;2023-09-12T13:25:46;2.05;;;1.83;;
77978;SDS011;67169;50.268;8.694;2023-09-12T13:28:14;3.03;;;2.15;;
77978;SDS011;67169;50.268;8.694;2023-09-12T13:30:40;2.70;;;1.88;;
77978;SDS011;67169;50.268;8.694;2023-09-12T13:33:07;3.90;;;2.15;;
77978;SDS011;67169;50.268;8.694;2023-09-12T13:35:33;3.15;;;2.13;;
77978;SDS011;67169;50.268;8.694;2023-09-12T13:38:00;4.97;;;2.22;;
77978;SDS011;67169;50.268;8.694;2023-09-12T13:40:28;3.88;;;2.00;;
77978;SDS011;67169;50.268;8.694;2023-09-12T13:45:23;2.72;;;2.00;;
77978;SDS011;67169;50.268;8.694;2023-09-12T13:47:50;2.72;;;2.00;;
77978;SDS011;67169;50.268;8.694;2023-09-12T13:50:16;3.88;;;2.35;;
77978;SDS011;67169;50.268;8.694;2023-09-12T13:55:10;3.08;;;2.17;;
77978;SDS011;67169;50.268;8.694;2023-09-12T13:57:38;4.85;;;2.50;;
77978;SDS011;67169;50.268;8.694;2023-09-12T14:02:33;3.75;;;2.05;;
77978;SDS011;67169;50.268;8.694;2023-09-12T14:05:00;3.03;;;2.10;;
77978;SDS011;67169;50.268;8.694;2023-09-12T14:09:53;4.10;;;2.05;;
77978;SDS011;67169;50.268;8.694;2023-09-12T14:12:21;3.63;;;2.38;;
77978;SDS011;67169;50.268;8.694;2023-09-12T14:14:48;2.40;;;2.20;;
77978;SDS011;67169;50.268;8.694;2023-09-12T14:19:42;2.22;;;2.03;;
77978;SDS011;67169;50.268;8.694;2023-09-12T14:22:09;2.90;;;1.92;;
77978;SDS011;67169;50.268;8.694;2023-09-12T14:27:02;4.07;;;1.73;;
77978;SDS011;67169;50.268;8.694;2023-09-12T14:29:28;4.10;;;2.50;;
77978;SDS011;67169;50.268;8.694;2023-09-12T14:34:22;2.97;;;2.30;;
77978;SDS011;67169;50.268;8.694;2023-09-12T14:36:53;3.42;;;1.90;;
77978;SDS011;67169;50.268;8.694;2023-09-12T14:39:20;3.55;;;2.38;;
77978;SDS011;67169;50.268;8.694;2023-09-12T14:41:47;4.13;;;2.40;;
77978;SDS011;67169;50.268;8.694;2023-09-12T14:44:16;3.22;;;2.33;;
77978;SDS011;67169;50.268;8.694;2023-09-12T14:49:10;2.75;;;1.92;;
77978;SDS011;67169;50.268;8.694;2023-09-12T14:54:04;2.60;;;2.13;;
77978;SDS011;67169;50.268;8.694;2023-09-12T14:56:32;4.72;;;2.33;;
77978;SDS011;67169;50.268;8.694;2023-09-12T14:58:59;4.20;;;2.13;;
77978;SDS011;67169;50.268;8.694;2023-09-12T15:01:26;3.97;;;2.70;;
77978;SDS011;67169;50.268;8.694;2023-09-12T15:06:19;3.28;;;2.08;;
77978;SDS011;67169;50.268;8.694;2023-09-12T15:11:14;2.90;;;2.00;;
77978;SDS011;67169;50.268;8.694;2023-09-12T15:13:40;3.28;;;2.20;;
77978;SDS011;67169;50.268;8.694;2023-09-12T15:16:07;2.50;;;1.92;;
77978;SDS011;67169;50.268;8.694;2023-09-12T15:18:33;3.83;;;2.72;;
77978;SDS011;67169;50.268;8.694;2023-09-12T15:21:00;2.60;;;2.40;;
77978;SDS011;67169;50.268;8.694;2023-09-12T15:23:27;2.22;;;1.95;;
77978;SDS011;67169;50.268;8.694;2023-09-12T15:25:54;2.92;;;2.05;;
77978;SDS011;67169;50.268;8.694;2023-09-12T15:28:21;3.67;;;2.03;;
77978;SDS011;67169;50.268;8.694;2023-09-12T15:30:48;2.83;;;2.60;;
77978;SDS011;67169;50.268;8.694;2023-09-12T15:33:15;3.65;;;2.45;;
77978;SDS011;67169;50.268;8.694;2023-09-12T15:35:41;3.33;;;2.35;;
77978;SDS011;67169;50.268;8.694;2023-09-12T15:38:08;2.70;;;2.10;;
77978;SDS011;67169;50.268;8.694;2023-09-12T15:40:35;3.33;;;2.42;;